X  Close Metar Aviation Weather Data        LEGR Granada
Temperature
23°C Temperature
3°C Dewpoint
27% Humidity



Wind
4 KM/H
2 MPH
1 M/S
2 KTS



-1°
VRB
Current Conditions

Mostly Sunny Mostly Sunny
Pressure 1016 (hPa) - 30.01 (inHg)
Visibility 30 (mile) - 48 (km)
Airport
Airport-code LEGR

Location: Granada
Distance: 56 (km)

Metar:
METAR LEGR 261400Z VRB02KT 9999 FEW040 23/03 Q1019

Time: 26-10-2021 16:00 CEST